sensor_id;sensor_type;location;lat;lon;timestamp;P1;durP1;ratioP1;P2;durP2;ratioP2
19907;SDS011;10116;53.112;7.356;2023-05-10T00:01:22;2.93;;;2.80;;
19907;SDS011;10116;53.112;7.356;2023-05-10T00:03:48;2.50;;;2.40;;
19907;SDS011;10116;53.112;7.356;2023-05-10T00:06:14;2.53;;;2.40;;
19907;SDS011;10116;53.112;7.356;2023-05-10T00:08:39;2.90;;;2.80;;
19907;SDS011;10116;53.112;7.356;2023-05-10T00:11:05;2.77;;;2.67;;
19907;SDS011;10116;53.112;7.356;2023-05-10T00:13:30;2.70;;;2.60;;
19907;SDS011;10116;53.112;7.356;2023-05-10T00:15:56;2.60;;;2.50;;
19907;SDS011;10116;53.112;7.356;2023-05-10T00:18:22;2.90;;;2.80;;
19907;SDS011;10116;53.112;7.356;2023-05-10T00:20:47;2.50;;;2.40;;
19907;SDS011;10116;53.112;7.356;2023-05-10T00:23:13;2.47;;;2.37;;
19907;SDS011;10116;53.112;7.356;2023-05-10T00:25:39;2.80;;;2.60;;
19907;SDS011;10116;53.112;7.356;2023-05-10T00:28:05;2.80;;;2.70;;
19907;SDS011;10116;53.112;7.356;2023-05-10T00:30:30;3.13;;;2.93;;
19907;SDS011;10116;53.112;7.356;2023-05-10T00:32:56;2.83;;;2.73;;
19907;SDS011;10116;53.112;7.356;2023-05-10T00:35:22;2.03;;;2.00;;
19907;SDS011;10116;53.112;7.356;2023-05-10T00:37:47;3.00;;;2.90;;
19907;SDS011;10116;53.112;7.356;2023-05-10T00:40:13;2.37;;;2.27;;
19907;SDS011;10116;53.112;7.356;2023-05-10T00:42:39;2.30;;;2.20;;
19907;SDS011;10116;53.112;7.356;2023-05-10T00:45:05;2.60;;;2.50;;
19907;SDS011;10116;53.112;7.356;2023-05-10T00:47:31;2.47;;;2.37;;
19907;SDS011;10116;53.112;7.356;2023-05-10T00:49:57;2.30;;;2.20;;
19907;SDS011;10116;53.112;7.356;2023-05-10T00:52:25;2.10;;;2.00;;
19907;SDS011;10116;53.112;7.356;2023-05-10T00:54:52;2.30;;;2.20;;
19907;SDS011;10116;53.112;7.356;2023-05-10T00:57:17;2.20;;;2.10;;
19907;SDS011;10116;53.112;7.356;2023-05-10T00:59:43;2.17;;;2.07;;
19907;SDS011;10116;53.112;7.356;2023-05-10T01:02:09;2.50;;;2.40;;
19907;SDS011;10116;53.112;7.356;2023-05-10T01:04:35;2.30;;;2.20;;
19907;SDS011;10116;53.112;7.356;2023-05-10T01:07:02;2.33;;;2.13;;
19907;SDS011;10116;53.112;7.356;2023-05-10T01:09:28;2.00;;;1.90;;
19907;SDS011;10116;53.112;7.356;2023-05-10T01:11:53;2.23;;;2.13;;
19907;SDS011;10116;53.112;7.356;2023-05-10T01:14:20;2.20;;;2.10;;
19907;SDS011;10116;53.112;7.356;2023-05-10T01:16:46;2.13;;;2.03;;
19907;SDS011;10116;53.112;7.356;2023-05-10T01:19:19;1.90;;;1.90;;
19907;SDS011;10116;53.112;7.356;2023-05-10T01:33:53;1.77;;;1.77;;
19907;SDS011;10116;53.112;7.356;2023-05-10T01:39:02;1.63;;;1.63;;
19907;SDS011;10116;53.112;7.356;2023-05-10T01:41:41;2.10;;;2.00;;
19907;SDS011;10116;53.112;7.356;2023-05-10T01:47:04;1.53;;;1.53;;
19907;SDS011;10116;53.112;7.356;2023-05-10T01:49:35;2.00;;;1.90;;
19907;SDS011;10116;53.112;7.356;2023-05-10T01:52:08;1.60;;;1.60;;
19907;SDS011;10116;53.112;7.356;2023-05-10T01:54:38;5.60;;;1.60;;
19907;SDS011;10116;53.112;7.356;2023-05-10T01:57:07;1.57;;;1.53;;
19907;SDS011;10116;53.112;7.356;2023-05-10T01:59:37;2.03;;;2.00;;
19907;SDS011;10116;53.112;7.356;2023-05-10T02:02:05;1.43;;;1.43;;
19907;SDS011;10116;53.112;7.356;2023-05-10T02:04:36;1.83;;;1.73;;
19907;SDS011;10116;53.112;7.356;2023-05-10T02:07:04;1.67;;;1.67;;
19907;SDS011;10116;53.112;7.356;2023-05-10T02:09:32;1.70;;;1.60;;
19907;SDS011;10116;53.112;7.356;2023-05-10T02:11:59;2.00;;;1.90;;
19907;SDS011;10116;53.112;7.356;2023-05-10T02:14:27;1.63;;;1.57;;
19907;SDS011;10116;53.112;7.356;2023-05-10T02:16:55;1.87;;;1.77;;
19907;SDS011;10116;53.112;7.356;2023-05-10T02:19:23;2.30;;;2.20;;
19907;SDS011;10116;53.112;7.356;2023-05-10T02:21:50;1.80;;;1.80;;
19907;SDS011;10116;53.112;7.356;2023-05-10T02:24:16;1.87;;;1.87;;
19907;SDS011;10116;53.112;7.356;2023-05-10T02:26:44;1.87;;;1.77;;
19907;SDS011;10116;53.112;7.356;2023-05-10T02:29:12;2.03;;;1.93;;
19907;SDS011;10116;53.112;7.356;2023-05-10T02:31:39;2.00;;;1.90;;
19907;SDS011;10116;53.112;7.356;2023-05-10T02:34:08;1.97;;;1.87;;
19907;SDS011;10116;53.112;7.356;2023-05-10T02:36:35;1.60;;;1.60;;
19907;SDS011;10116;53.112;7.356;2023-05-10T02:39:02;2.20;;;2.10;;
19907;SDS011;10116;53.112;7.356;2023-05-10T02:41:30;2.07;;;1.97;;
19907;SDS011;10116;53.112;7.356;2023-05-10T02:43:57;1.83;;;1.80;;
19907;SDS011;10116;53.112;7.356;2023-05-10T02:46:26;1.80;;;1.80;;
19907;SDS011;10116;53.112;7.356;2023-05-10T02:48:51;2.03;;;1.93;;
19907;SDS011;10116;53.112;7.356;2023-05-10T02:51:17;2.00;;;1.90;;
19907;SDS011;10116;53.112;7.356;2023-05-10T02:53:46;1.70;;;1.70;;
19907;SDS011;10116;53.112;7.356;2023-05-10T02:56:20;2.27;;;2.17;;
19907;SDS011;10116;53.112;7.356;2023-05-10T02:58:50;2.07;;;1.87;;
19907;SDS011;10116;53.112;7.356;2023-05-10T03:01:17;1.80;;;1.70;;
19907;SDS011;10116;53.112;7.356;2023-05-10T03:03:42;1.70;;;1.70;;
19907;SDS011;10116;53.112;7.356;2023-05-10T03:06:08;1.40;;;1.40;;
19907;SDS011;10116;53.112;7.356;2023-05-10T03:08:34;1.67;;;1.57;;
19907;SDS011;10116;53.112;7.356;2023-05-10T03:16:56;1.47;;;1.47;;
19907;SDS011;10116;53.112;7.356;2023-05-10T03:22:10;1.43;;;1.40;;
19907;SDS011;10116;53.112;7.356;2023-05-10T03:24:38;1.70;;;1.63;;
19907;SDS011;10116;53.112;7.356;2023-05-10T03:27:06;1.50;;;1.40;;
19907;SDS011;10116;53.112;7.356;2023-05-10T03:29:32;1.17;;;1.17;;
19907;SDS011;10116;53.112;7.356;2023-05-10T03:31:58;1.30;;;1.30;;
19907;SDS011;10116;53.112;7.356;2023-05-10T03:34:25;1.20;;;1.20;;
19907;SDS011;10116;53.112;7.356;2023-05-10T03:36:51;11.80;;;1.37;;
19907;SDS011;10116;53.112;7.356;2023-05-10T03:39:17;1.40;;;1.40;;
19907;SDS011;10116;53.112;7.356;2023-05-10T03:41:42;1.40;;;1.40;;
19907;SDS011;10116;53.112;7.356;2023-05-10T03:44:08;1.23;;;1.23;;
19907;SDS011;10116;53.112;7.356;2023-05-10T03:46:33;1.13;;;1.07;;
19907;SDS011;10116;53.112;7.356;2023-05-10T03:48:59;1.30;;;1.30;;
19907;SDS011;10116;53.112;7.356;2023-05-10T03:51:25;1.37;;;1.37;;
19907;SDS011;10116;53.112;7.356;2023-05-10T03:53:53;1.30;;;1.30;;
19907;SDS011;10116;53.112;7.356;2023-05-10T03:56:19;2.20;;;1.30;;
19907;SDS011;10116;53.112;7.356;2023-05-10T03:58:45;1.10;;;1.10;;
19907;SDS011;10116;53.112;7.356;2023-05-10T04:01:11;1.17;;;1.17;;
19907;SDS011;10116;53.112;7.356;2023-05-10T04:03:37;1.10;;;1.10;;
19907;SDS011;10116;53.112;7.356;2023-05-10T04:06:03;1.00;;;1.00;;
19907;SDS011;10116;53.112;7.356;2023-05-10T04:08:29;1.10;;;1.10;;
19907;SDS011;10116;53.112;7.356;2023-05-10T04:11:04;0.90;;;0.90;;
19907;SDS011;10116;53.112;7.356;2023-05-10T04:13:33;1.13;;;1.03;;
19907;SDS011;10116;53.112;7.356;2023-05-10T04:15:59;1.57;;;1.00;;
19907;SDS011;10116;53.112;7.356;2023-05-10T04:18:25;1.10;;;1.10;;
19907;SDS011;10116;53.112;7.356;2023-05-10T04:20:51;0.90;;;0.90;;
19907;SDS011;10116;53.112;7.356;2023-05-10T04:23:16;0.87;;;0.87;;
19907;SDS011;10116;53.112;7.356;2023-05-10T04:25:42;0.90;;;0.90;;
19907;SDS011;10116;53.112;7.356;2023-05-10T04:28:08;1.20;;;1.10;;
19907;SDS011;10116;53.112;7.356;2023-05-10T04:30:34;1.00;;;1.00;;
19907;SDS011;10116;53.112;7.356;2023-05-10T04:33:00;1.20;;;1.10;;
19907;SDS011;10116;53.112;7.356;2023-05-10T04:35:27;1.10;;;1.10;;
19907;SDS011;10116;53.112;7.356;2023-05-10T04:37:53;2.63;;;1.23;;
19907;SDS011;10116;53.112;7.356;2023-05-10T04:40:19;1.63;;;1.20;;
19907;SDS011;10116;53.112;7.356;2023-05-10T04:42:45;0.87;;;0.87;;
19907;SDS011;10116;53.112;7.356;2023-05-10T04:45:11;1.40;;;1.30;;
19907;SDS011;10116;53.112;7.356;2023-05-10T04:47:37;1.00;;;1.00;;
19907;SDS011;10116;53.112;7.356;2023-05-10T04:50:03;1.13;;;1.13;;
19907;SDS011;10116;53.112;7.356;2023-05-10T04:52:29;0.80;;;0.80;;
19907;SDS011;10116;53.112;7.356;2023-05-10T04:54:55;1.00;;;1.00;;
19907;SDS011;10116;53.112;7.356;2023-05-10T04:57:20;1.20;;;0.80;;
19907;SDS011;10116;53.112;7.356;2023-05-10T04:59:47;1.27;;;1.13;;
19907;SDS011;10116;53.112;7.356;2023-05-10T05:02:13;2.97;;;1.07;;
19907;SDS011;10116;53.112;7.356;2023-05-10T05:04:38;0.80;;;0.80;;
19907;SDS011;10116;53.112;7.356;2023-05-10T05:07:04;1.13;;;1.13;;
19907;SDS011;10116;53.112;7.356;2023-05-10T05:09:30;3.27;;;1.17;;
19907;SDS011;10116;53.112;7.356;2023-05-10T05:11:57;1.13;;;1.13;;
19907;SDS011;10116;53.112;7.356;2023-05-10T05:14:23;1.43;;;1.23;;
19907;SDS011;10116;53.112;7.356;2023-05-10T05:16:50;1.10;;;1.00;;
19907;SDS011;10116;53.112;7.356;2023-05-10T05:19:16;0.80;;;0.77;;
19907;SDS011;10116;53.112;7.356;2023-05-10T05:21:42;1.00;;;0.90;;
19907;SDS011;10116;53.112;7.356;2023-05-10T05:24:07;0.90;;;0.90;;
19907;SDS011;10116;53.112;7.356;2023-05-10T05:26:33;3.10;;;0.90;;
19907;SDS011;10116;53.112;7.356;2023-05-10T05:28:59;1.03;;;0.93;;
19907;SDS011;10116;53.112;7.356;2023-05-10T05:31:24;1.27;;;1.17;;
19907;SDS011;10116;53.112;7.356;2023-05-10T05:33:50;0.90;;;0.90;;
19907;SDS011;10116;53.112;7.356;2023-05-10T05:36:16;1.00;;;1.00;;
19907;SDS011;10116;53.112;7.356;2023-05-10T05:38:41;1.27;;;0.87;;
19907;SDS011;10116;53.112;7.356;2023-05-10T05:41:08;0.83;;;0.83;;
19907;SDS011;10116;53.112;7.356;2023-05-10T05:43:33;0.80;;;0.80;;
19907;SDS011;10116;53.112;7.356;2023-05-10T05:45:59;2.60;;;0.90;;
19907;SDS011;10116;53.112;7.356;2023-05-10T05:48:24;0.73;;;0.73;;
19907;SDS011;10116;53.112;7.356;2023-05-10T05:50:53;0.80;;;0.80;;
19907;SDS011;10116;53.112;7.356;2023-05-10T05:53:20;0.80;;;0.80;;
19907;SDS011;10116;53.112;7.356;2023-05-10T05:55:55;0.50;;;0.50;;
19907;SDS011;10116;53.112;7.356;2023-05-10T05:58:23;0.60;;;0.60;;
19907;SDS011;10116;53.112;7.356;2023-05-10T06:00:49;0.70;;;0.60;;
19907;SDS011;10116;53.112;7.356;2023-05-10T06:03:15;0.63;;;0.63;;
19907;SDS011;10116;53.112;7.356;2023-05-10T06:05:41;1.13;;;0.90;;
19907;SDS011;10116;53.112;7.356;2023-05-10T06:08:07;1.10;;;0.93;;
19907;SDS011;10116;53.112;7.356;2023-05-10T06:10:32;0.90;;;0.80;;
19907;SDS011;10116;53.112;7.356;2023-05-10T06:12:58;1.43;;;0.70;;
19907;SDS011;10116;53.112;7.356;2023-05-10T06:15:24;1.23;;;0.70;;
19907;SDS011;10116;53.112;7.356;2023-05-10T06:17:49;0.50;;;0.50;;
19907;SDS011;10116;53.112;7.356;2023-05-10T06:20:15;0.53;;;0.53;;
19907;SDS011;10116;53.112;7.356;2023-05-10T06:22:41;2.30;;;0.53;;
19907;SDS011;10116;53.112;7.356;2023-05-10T06:25:07;1.10;;;0.50;;
19907;SDS011;10116;53.112;7.356;2023-05-10T06:27:33;0.60;;;0.60;;
19907;SDS011;10116;53.112;7.356;2023-05-10T06:29:59;1.13;;;0.60;;
19907;SDS011;10116;53.112;7.356;2023-05-10T06:32:24;0.80;;;0.80;;
19907;SDS011;10116;53.112;7.356;2023-05-10T06:34:50;0.80;;;0.43;;
19907;SDS011;10116;53.112;7.356;2023-05-10T06:37:15;0.90;;;0.60;;
19907;SDS011;10116;53.112;7.356;2023-05-10T06:39:41;0.50;;;0.50;;
19907;SDS011;10116;53.112;7.356;2023-05-10T06:42:07;0.77;;;0.70;;
19907;SDS011;10116;53.112;7.356;2023-05-10T06:44:32;0.80;;;0.50;;
19907;SDS011;10116;53.112;7.356;2023-05-10T06:46:58;0.77;;;0.50;;
19907;SDS011;10116;53.112;7.356;2023-05-10T06:49:24;0.70;;;0.70;;
19907;SDS011;10116;53.112;7.356;2023-05-10T06:51:49;0.50;;;0.40;;
19907;SDS011;10116;53.112;7.356;2023-05-10T06:54:15;0.73;;;0.60;;
19907;SDS011;10116;53.112;7.356;2023-05-10T06:56:40;1.07;;;0.50;;
19907;SDS011;10116;53.112;7.356;2023-05-10T06:59:06;0.70;;;0.50;;
19907;SDS011;10116;53.112;7.356;2023-05-10T07:01:32;0.50;;;0.50;;
19907;SDS011;10116;53.112;7.356;2023-05-10T07:03:57;0.97;;;0.73;;
19907;SDS011;10116;53.112;7.356;2023-05-10T07:06:23;1.23;;;0.60;;
19907;SDS011;10116;53.112;7.356;2023-05-10T07:08:48;0.80;;;0.50;;
19907;SDS011;10116;53.112;7.356;2023-05-10T07:11:14;0.40;;;0.40;;
19907;SDS011;10116;53.112;7.356;2023-05-10T07:13:40;0.80;;;0.53;;
19907;SDS011;10116;53.112;7.356;2023-05-10T07:16:08;0.50;;;0.40;;
19907;SDS011;10116;53.112;7.356;2023-05-10T07:18:34;0.60;;;0.40;;
19907;SDS011;10116;53.112;7.356;2023-05-10T07:21:00;0.60;;;0.47;;
19907;SDS011;10116;53.112;7.356;2023-05-10T07:23:26;0.50;;;0.50;;
19907;SDS011;10116;53.112;7.356;2023-05-10T07:25:52;0.67;;;0.50;;
19907;SDS011;10116;53.112;7.356;2023-05-10T07:28:18;0.50;;;0.50;;
19907;SDS011;10116;53.112;7.356;2023-05-10T07:30:44;0.80;;;0.40;;
19907;SDS011;10116;53.112;7.356;2023-05-10T07:33:11;0.80;;;0.50;;
19907;SDS011;10116;53.112;7.356;2023-05-10T07:35:38;0.40;;;0.40;;
19907;SDS011;10116;53.112;7.356;2023-05-10T07:38:04;0.40;;;0.30;;
19907;SDS011;10116;53.112;7.356;2023-05-10T07:40:29;0.60;;;0.60;;
19907;SDS011;10116;53.112;7.356;2023-05-10T07:42:55;0.50;;;0.40;;
19907;SDS011;10116;53.112;7.356;2023-05-10T07:45:21;0.50;;;0.40;;
19907;SDS011;10116;53.112;7.356;2023-05-10T07:47:47;1.00;;;0.50;;
19907;SDS011;10116;53.112;7.356;2023-05-10T07:50:13;2.20;;;0.30;;
19907;SDS011;10116;53.112;7.356;2023-05-10T07:52:39;1.90;;;0.30;;
19907;SDS011;10116;53.112;7.356;2023-05-10T07:55:04;0.73;;;0.40;;
19907;SDS011;10116;53.112;7.356;2023-05-10T07:57:32;8.63;;;0.63;;
19907;SDS011;10116;53.112;7.356;2023-05-10T07:59:58;0.50;;;0.47;;
19907;SDS011;10116;53.112;7.356;2023-05-10T08:02:24;0.80;;;0.40;;
19907;SDS011;10116;53.112;7.356;2023-05-10T08:04:50;2.20;;;0.50;;
19907;SDS011;10116;53.112;7.356;2023-05-10T08:07:16;0.80;;;0.43;;
19907;SDS011;10116;53.112;7.356;2023-05-10T08:09:42;14.30;;;1.20;;
19907;SDS011;10116;53.112;7.356;2023-05-10T08:12:07;6.10;;;1.00;;
19907;SDS011;10116;53.112;7.356;2023-05-10T08:14:33;10.50;;;0.83;;
19907;SDS011;10116;53.112;7.356;2023-05-10T08:16:59;14.33;;;1.07;;
19907;SDS011;10116;53.112;7.356;2023-05-10T08:19:24;8.30;;;1.30;;
19907;SDS011;10116;53.112;7.356;2023-05-10T08:21:50;4.40;;;0.70;;
19907;SDS011;10116;53.112;7.356;2023-05-10T08:24:15;7.10;;;0.73;;
19907;SDS011;10116;53.112;7.356;2023-05-10T08:26:41;0.97;;;0.53;;
19907;SDS011;10116;53.112;7.356;2023-05-10T08:29:07;4.03;;;0.80;;
19907;SDS011;10116;53.112;7.356;2023-05-10T08:31:32;2.23;;;0.70;;
19907;SDS011;10116;53.112;7.356;2023-05-10T08:33:58;1.30;;;1.17;;
19907;SDS011;10116;53.112;7.356;2023-05-10T08:36:24;2.30;;;0.60;;
19907;SDS011;10116;53.112;7.356;2023-05-10T08:38:50;1.57;;;0.60;;
19907;SDS011;10116;53.112;7.356;2023-05-10T08:41:17;1.27;;;0.70;;
19907;SDS011;10116;53.112;7.356;2023-05-10T08:43:49;4.60;;;0.70;;
19907;SDS011;10116;53.112;7.356;2023-05-10T08:46:16;1.03;;;0.40;;
19907;SDS011;10116;53.112;7.356;2023-05-10T08:48:44;8.33;;;0.50;;
19907;SDS011;10116;53.112;7.356;2023-05-10T08:51:12;2.10;;;0.43;;
19907;SDS011;10116;53.112;7.356;2023-05-10T08:53:39;2.57;;;0.67;;
19907;SDS011;10116;53.112;7.356;2023-05-10T08:56:05;0.97;;;0.50;;
19907;SDS011;10116;53.112;7.356;2023-05-10T08:58:31;2.30;;;0.70;;
19907;SDS011;10116;53.112;7.356;2023-05-10T09:00:57;1.60;;;0.53;;
19907;SDS011;10116;53.112;7.356;2023-05-10T09:03:24;0.87;;;0.40;;
19907;SDS011;10116;53.112;7.356;2023-05-10T09:05:49;1.03;;;0.40;;
19907;SDS011;10116;53.112;7.356;2023-05-10T09:08:15;0.40;;;0.30;;
19907;SDS011;10116;53.112;7.356;2023-05-10T09:10:42;1.13;;;0.40;;
19907;SDS011;10116;53.112;7.356;2023-05-10T09:13:10;0.60;;;0.30;;
19907;SDS011;10116;53.112;7.356;2023-05-10T09:15:37;1.20;;;0.40;;
19907;SDS011;10116;53.112;7.356;2023-05-10T09:18:03;1.33;;;0.40;;
19907;SDS011;10116;53.112;7.356;2023-05-10T09:20:29;2.17;;;0.40;;
19907;SDS011;10116;53.112;7.356;2023-05-10T09:22:56;1.37;;;0.50;;
19907;SDS011;10116;53.112;7.356;2023-05-10T09:25:21;1.10;;;0.43;;
19907;SDS011;10116;53.112;7.356;2023-05-10T09:27:47;4.40;;;0.60;;
19907;SDS011;10116;53.112;7.356;2023-05-10T09:30:17;1.10;;;0.40;;
19907;SDS011;10116;53.112;7.356;2023-05-10T09:32:50;1.60;;;0.33;;
19907;SDS011;10116;53.112;7.356;2023-05-10T09:35:17;0.40;;;0.30;;
19907;SDS011;10116;53.112;7.356;2023-05-10T09:37:46;0.90;;;0.30;;
19907;SDS011;10116;53.112;7.356;2023-05-10T09:40:17;0.50;;;0.40;;
19907;SDS011;10116;53.112;7.356;2023-05-10T09:42:57;1.10;;;0.40;;
19907;SDS011;10116;53.112;7.356;2023-05-10T09:45:32;0.60;;;0.30;;
19907;SDS011;10116;53.112;7.356;2023-05-10T09:48:00;0.40;;;0.30;;
19907;SDS011;10116;53.112;7.356;2023-05-10T09:50:27;0.77;;;0.40;;
19907;SDS011;10116;53.112;7.356;2023-05-10T09:53:00;0.87;;;0.40;;
19907;SDS011;10116;53.112;7.356;2023-05-10T09:55:38;1.03;;;0.60;;
19907;SDS011;10116;53.112;7.356;2023-05-10T09:58:05;0.50;;;0.30;;
19907;SDS011;10116;53.112;7.356;2023-05-10T10:00:44;0.40;;;0.33;;
19907;SDS011;10116;53.112;7.356;2023-05-10T10:03:16;0.40;;;0.40;;
19907;SDS011;10116;53.112;7.356;2023-05-10T10:05:44;0.70;;;0.30;;
19907;SDS011;10116;53.112;7.356;2023-05-10T10:08:11;0.73;;;0.30;;
19907;SDS011;10116;53.112;7.356;2023-05-10T10:10:37;0.50;;;0.40;;
19907;SDS011;10116;53.112;7.356;2023-05-10T10:13:05;0.40;;;0.30;;
19907;SDS011;10116;53.112;7.356;2023-05-10T10:15:31;0.40;;;0.30;;
19907;SDS011;10116;53.112;7.356;2023-05-10T10:17:58;0.40;;;0.30;;
19907;SDS011;10116;53.112;7.356;2023-05-10T10:20:25;0.40;;;0.30;;
19907;SDS011;10116;53.112;7.356;2023-05-10T10:22:51;0.40;;;0.40;;
19907;SDS011;10116;53.112;7.356;2023-05-10T10:25:17;0.40;;;0.40;;
19907;SDS011;10116;53.112;7.356;2023-05-10T10:35:37;3.47;;;1.00;;
19907;SDS011;10116;53.112;7.356;2023-05-10T10:38:03;5.70;;;0.80;;
19907;SDS011;10116;53.112;7.356;2023-05-10T10:43:20;2.30;;;0.90;;
19907;SDS011;10116;53.112;7.356;2023-05-10T10:48:40;0.63;;;0.63;;
19907;SDS011;10116;53.112;7.356;2023-05-10T10:51:11;2.97;;;0.53;;
19907;SDS011;10116;53.112;7.356;2023-05-10T10:53:38;4.67;;;0.80;;
19907;SDS011;10116;53.112;7.356;2023-05-10T10:56:06;1.47;;;0.50;;
19907;SDS011;10116;53.112;7.356;2023-05-10T10:58:34;0.80;;;0.50;;
19907;SDS011;10116;53.112;7.356;2023-05-10T11:01:14;0.50;;;0.30;;
19907;SDS011;10116;53.112;7.356;2023-05-10T11:03:41;0.97;;;0.60;;
19907;SDS011;10116;53.112;7.356;2023-05-10T11:06:29;1.03;;;0.50;;
19907;SDS011;10116;53.112;7.356;2023-05-10T11:08:58;0.50;;;0.40;;
19907;SDS011;10116;53.112;7.356;2023-05-10T11:11:24;0.50;;;0.40;;
19907;SDS011;10116;53.112;7.356;2023-05-10T11:13:50;0.83;;;0.40;;
19907;SDS011;10116;53.112;7.356;2023-05-10T11:18:52;0.40;;;0.40;;
19907;SDS011;10116;53.112;7.356;2023-05-10T11:21:29;0.80;;;0.40;;
19907;SDS011;10116;53.112;7.356;2023-05-10T11:23:56;0.50;;;0.40;;
19907;SDS011;10116;53.112;7.356;2023-05-10T11:26:34;0.73;;;0.53;;
19907;SDS011;10116;53.112;7.356;2023-05-10T11:29:00;5.33;;;0.53;;
19907;SDS011;10116;53.112;7.356;2023-05-10T11:31:28;1.00;;;0.50;;
19907;SDS011;10116;53.112;7.356;2023-05-10T11:33:54;0.47;;;0.40;;
19907;SDS011;10116;53.112;7.356;2023-05-10T11:36:23;0.40;;;0.40;;
19907;SDS011;10116;53.112;7.356;2023-05-10T11:38:51;0.43;;;0.33;;
19907;SDS011;10116;53.112;7.356;2023-05-10T11:41:17;0.50;;;0.40;;
19907;SDS011;10116;53.112;7.356;2023-05-10T11:43:46;0.50;;;0.40;;
19907;SDS011;10116;53.112;7.356;2023-05-10T11:46:14;0.50;;;0.40;;
19907;SDS011;10116;53.112;7.356;2023-05-10T11:48:41;0.40;;;0.40;;
19907;SDS011;10116;53.112;7.356;2023-05-10T11:51:07;0.50;;;0.50;;
19907;SDS011;10116;53.112;7.356;2023-05-10T11:53:34;0.40;;;0.30;;
19907;SDS011;10116;53.112;7.356;2023-05-10T11:56:06;2.70;;;0.40;;
19907;SDS011;10116;53.112;7.356;2023-05-10T11:58:34;0.50;;;0.50;;
19907;SDS011;10116;53.112;7.356;2023-05-10T12:01:01;0.40;;;0.40;;
19907;SDS011;10116;53.112;7.356;2023-05-10T12:03:27;0.50;;;0.50;;
19907;SDS011;10116;53.112;7.356;2023-05-10T12:05:54;0.67;;;0.40;;
19907;SDS011;10116;53.112;7.356;2023-05-10T12:08:27;0.83;;;0.40;;
19907;SDS011;10116;53.112;7.356;2023-05-10T12:11:03;0.40;;;0.30;;
19907;SDS011;10116;53.112;7.356;2023-05-10T12:13:30;0.50;;;0.30;;
19907;SDS011;10116;53.112;7.356;2023-05-10T12:15:59;1.03;;;0.40;;
19907;SDS011;10116;53.112;7.356;2023-05-10T12:18:41;0.40;;;0.30;;
19907;SDS011;10116;53.112;7.356;2023-05-10T12:21:10;0.50;;;0.37;;
19907;SDS011;10116;53.112;7.356;2023-05-10T12:23:37;0.40;;;0.40;;
19907;SDS011;10116;53.112;7.356;2023-05-10T12:26:06;0.93;;;0.50;;
19907;SDS011;10116;53.112;7.356;2023-05-10T12:28:33;3.13;;;0.40;;
19907;SDS011;10116;53.112;7.356;2023-05-10T12:30:59;0.87;;;0.40;;
19907;SDS011;10116;53.112;7.356;2023-05-10T12:33:26;0.70;;;0.40;;
19907;SDS011;10116;53.112;7.356;2023-05-10T12:35:52;0.80;;;0.40;;
19907;SDS011;10116;53.112;7.356;2023-05-10T12:41:04;2.60;;;0.40;;
19907;SDS011;10116;53.112;7.356;2023-05-10T12:43:32;2.23;;;0.50;;
19907;SDS011;10116;53.112;7.356;2023-05-10T12:45:58;1.20;;;0.40;;
19907;SDS011;10116;53.112;7.356;2023-05-10T12:48:29;0.53;;;0.50;;
19907;SDS011;10116;53.112;7.356;2023-05-10T12:50:56;0.50;;;0.43;;
19907;SDS011;10116;53.112;7.356;2023-05-10T12:53:22;0.40;;;0.40;;
19907;SDS011;10116;53.112;7.356;2023-05-10T12:55:47;0.90;;;0.40;;
19907;SDS011;10116;53.112;7.356;2023-05-10T12:58:13;1.03;;;0.30;;
19907;SDS011;10116;53.112;7.356;2023-05-10T13:00:39;0.40;;;0.40;;
19907;SDS011;10116;53.112;7.356;2023-05-10T13:03:05;0.50;;;0.40;;
19907;SDS011;10116;53.112;7.356;2023-05-10T13:05:33;0.50;;;0.40;;
19907;SDS011;10116;53.112;7.356;2023-05-10T13:07:59;0.50;;;0.47;;
19907;SDS011;10116;53.112;7.356;2023-05-10T13:10:25;0.63;;;0.40;;
19907;SDS011;10116;53.112;7.356;2023-05-10T13:12:51;0.53;;;0.50;;
19907;SDS011;10116;53.112;7.356;2023-05-10T13:15:16;0.60;;;0.50;;
19907;SDS011;10116;53.112;7.356;2023-05-10T13:17:42;0.50;;;0.50;;
19907;SDS011;10116;53.112;7.356;2023-05-10T13:20:08;1.87;;;0.50;;
19907;SDS011;10116;53.112;7.356;2023-05-10T13:22:34;0.50;;;0.50;;
19907;SDS011;10116;53.112;7.356;2023-05-10T13:25:00;0.60;;;0.50;;
19907;SDS011;10116;53.112;7.356;2023-05-10T13:27:27;0.50;;;0.50;;
19907;SDS011;10116;53.112;7.356;2023-05-10T13:29:52;0.60;;;0.40;;
19907;SDS011;10116;53.112;7.356;2023-05-10T13:32:18;0.53;;;0.50;;
19907;SDS011;10116;53.112;7.356;2023-05-10T13:34:44;0.57;;;0.50;;
19907;SDS011;10116;53.112;7.356;2023-05-10T13:37:09;0.60;;;0.60;;
19907;SDS011;10116;53.112;7.356;2023-05-10T13:39:35;0.40;;;0.40;;
19907;SDS011;10116;53.112;7.356;2023-05-10T13:42:02;0.80;;;0.50;;
19907;SDS011;10116;53.112;7.356;2023-05-10T13:44:28;0.70;;;0.50;;
19907;SDS011;10116;53.112;7.356;2023-05-10T13:46:54;0.50;;;0.50;;
19907;SDS011;10116;53.112;7.356;2023-05-10T13:49:20;0.40;;;0.40;;
19907;SDS011;10116;53.112;7.356;2023-05-10T13:51:47;0.50;;;0.50;;
19907;SDS011;10116;53.112;7.356;2023-05-10T13:54:12;0.50;;;0.40;;
19907;SDS011;10116;53.112;7.356;2023-05-10T13:56:38;0.87;;;0.53;;
19907;SDS011;10116;53.112;7.356;2023-05-10T13:59:05;0.50;;;0.50;;
19907;SDS011;10116;53.112;7.356;2023-05-10T14:01:31;0.70;;;0.50;;
19907;SDS011;10116;53.112;7.356;2023-05-10T14:03:56;0.50;;;0.50;;
19907;SDS011;10116;53.112;7.356;2023-05-10T14:06:22;1.17;;;0.60;;
19907;SDS011;10116;53.112;7.356;2023-05-10T14:08:48;0.50;;;0.50;;
19907;SDS011;10116;53.112;7.356;2023-05-10T14:11:13;0.60;;;0.57;;
19907;SDS011;10116;53.112;7.356;2023-05-10T14:13:39;2.80;;;2.60;;
19907;SDS011;10116;53.112;7.356;2023-05-10T14:16:05;6.00;;;2.47;;
19907;SDS011;10116;53.112;7.356;2023-05-10T14:18:30;2.57;;;1.80;;
19907;SDS011;10116;53.112;7.356;2023-05-10T14:20:56;2.10;;;1.30;;
19907;SDS011;10116;53.112;7.356;2023-05-10T14:23:22;2.60;;;1.60;;
19907;SDS011;10116;53.112;7.356;2023-05-10T14:25:51;2.17;;;1.20;;
19907;SDS011;10116;53.112;7.356;2023-05-10T14:28:17;3.37;;;1.20;;
19907;SDS011;10116;53.112;7.356;2023-05-10T14:30:43;4.90;;;1.33;;
19907;SDS011;10116;53.112;7.356;2023-05-10T14:33:09;12.03;;;1.20;;
19907;SDS011;10116;53.112;7.356;2023-05-10T14:35:35;2.63;;;1.30;;
19907;SDS011;10116;53.112;7.356;2023-05-10T14:38:01;1.33;;;1.00;;
19907;SDS011;10116;53.112;7.356;2023-05-10T14:40:28;1.13;;;0.97;;
19907;SDS011;10116;53.112;7.356;2023-05-10T14:42:54;1.20;;;1.10;;
19907;SDS011;10116;53.112;7.356;2023-05-10T14:45:21;0.93;;;0.93;;
19907;SDS011;10116;53.112;7.356;2023-05-10T14:47:47;1.63;;;1.40;;
19907;SDS011;10116;53.112;7.356;2023-05-10T14:50:14;1.53;;;0.90;;
19907;SDS011;10116;53.112;7.356;2023-05-10T14:52:40;2.30;;;1.00;;
19907;SDS011;10116;53.112;7.356;2023-05-10T14:55:06;1.20;;;1.10;;
19907;SDS011;10116;53.112;7.356;2023-05-10T14:57:32;0.80;;;0.80;;
19907;SDS011;10116;53.112;7.356;2023-05-10T14:59:58;1.07;;;0.97;;
19907;SDS011;10116;53.112;7.356;2023-05-10T15:02:23;1.57;;;0.80;;
19907;SDS011;10116;53.112;7.356;2023-05-10T15:04:49;1.93;;;0.73;;
19907;SDS011;10116;53.112;7.356;2023-05-10T15:07:15;1.33;;;1.00;;
19907;SDS011;10116;53.112;7.356;2023-05-10T15:09:43;0.90;;;0.90;;
19907;SDS011;10116;53.112;7.356;2023-05-10T15:12:09;1.07;;;1.07;;
19907;SDS011;10116;53.112;7.356;2023-05-10T15:14:34;1.20;;;0.90;;
19907;SDS011;10116;53.112;7.356;2023-05-10T15:17:01;1.17;;;1.10;;
19907;SDS011;10116;53.112;7.356;2023-05-10T15:19:27;1.00;;;0.77;;
19907;SDS011;10116;53.112;7.356;2023-05-10T15:21:54;2.10;;;0.80;;
19907;SDS011;10116;53.112;7.356;2023-05-10T15:24:20;1.33;;;0.90;;
19907;SDS011;10116;53.112;7.356;2023-05-10T15:26:46;0.70;;;0.70;;
19907;SDS011;10116;53.112;7.356;2023-05-10T15:29:12;1.30;;;1.10;;
19907;SDS011;10116;53.112;7.356;2023-05-10T15:31:44;0.90;;;0.80;;